sensor_id;sensor_type;location;lat;lon;timestamp;pressure;altitude;pressure_sealevel;temperature;humidity
47260;BME280;32999;52.412;4.890;2022-10-13T00:03:17;101832.34;;;14.67;100.00
47260;BME280;32999;52.412;4.890;2022-10-13T00:08:24;101805.97;;;14.26;100.00
47260;BME280;32999;52.412;4.890;2022-10-13T00:13:26;101818.78;;;14.10;100.00
47260;BME280;32999;52.412;4.890;2022-10-13T00:18:28;101847.53;;;14.09;100.00
47260;BME280;32999;52.412;4.890;2022-10-13T00:23:32;101826.00;;;13.94;100.00
47260;BME280;32999;52.412;4.890;2022-10-13T00:28:34;101822.28;;;13.81;100.00
47260;BME280;32999;52.412;4.890;2022-10-13T00:33:36;101819.22;;;13.84;100.00
47260;BME280;32999;52.412;4.890;2022-10-13T00:38:39;101697.63;;;12.85;100.00
47260;BME280;32999;52.412;4.890;2022-10-13T00:43:54;101833.53;;;13.61;100.00
47260;BME280;32999;52.412;4.890;2022-10-13T00:48:59;101821.38;;;13.51;100.00
47260;BME280;32999;52.412;4.890;2022-10-13T00:54:05;101821.03;;;13.54;100.00
47260;BME280;32999;52.412;4.890;2022-10-13T00:59:11;101798.28;;;13.27;100.00
47260;BME280;32999;52.412;4.890;2022-10-13T01:04:24;101848.59;;;13.48;100.00
47260;BME280;32999;52.412;4.890;2022-10-13T01:09:28;101853.84;;;13.41;100.00
47260;BME280;32999;52.412;4.890;2022-10-13T01:14:42;101832.50;;;13.25;100.00
47260;BME280;32999;52.412;4.890;2022-10-13T01:20:13;101837.53;;;13.28;100.00
47260;BME280;32999;52.412;4.890;2022-10-13T01:25:47;101804.44;;;13.05;100.00
47260;BME280;32999;52.412;4.890;2022-10-13T01:30:57;101835.41;;;13.15;100.00
47260;BME280;32999;52.412;4.890;2022-10-13T01:36:09;101831.56;;;13.18;100.00
47260;BME280;32999;52.412;4.890;2022-10-13T01:41:18;101835.47;;;13.07;100.00
47260;BME280;32999;52.412;4.890;2022-10-13T01:46:26;101737.09;;;12.46;100.00
47260;BME280;32999;52.412;4.890;2022-10-13T01:51:31;101824.44;;;13.02;100.00
47260;BME280;32999;52.412;4.890;2022-10-13T01:56:34;101826.06;;;13.11;100.00
47260;BME280;32999;52.412;4.890;2022-10-13T02:01:47;101736.88;;;12.55;100.00
47260;BME280;32999;52.412;4.890;2022-10-13T02:06:58;101769.50;;;12.90;100.00
47260;BME280;32999;52.412;4.890;2022-10-13T02:12:07;101816.16;;;13.35;100.00
47260;BME280;32999;52.412;4.890;2022-10-13T02:17:14;101711.38;;;12.82;100.00
47260;BME280;32999;52.412;4.890;2022-10-13T02:22:16;101751.63;;;12.82;100.00
47260;BME280;32999;52.412;4.890;2022-10-13T02:27:18;101795.28;;;13.22;100.00
47260;BME280;32999;52.412;4.890;2022-10-13T02:32:22;101791.22;;;13.26;100.00
47260;BME280;32999;52.412;4.890;2022-10-13T02:37:24;101809.72;;;13.21;100.00
47260;BME280;32999;52.412;4.890;2022-10-13T02:42:26;101777.25;;;13.08;100.00
47260;BME280;32999;52.412;4.890;2022-10-13T02:47:29;101747.28;;;12.81;100.00
47260;BME280;32999;52.412;4.890;2022-10-13T02:52:31;101714.44;;;12.79;100.00
47260;BME280;32999;52.412;4.890;2022-10-13T02:57:33;101759.00;;;13.26;100.00
47260;BME280;32999;52.412;4.890;2022-10-13T03:02:36;101658.69;;;12.44;100.00
47260;BME280;32999;52.412;4.890;2022-10-13T03:07:38;101756.31;;;13.26;100.00
47260;BME280;32999;52.412;4.890;2022-10-13T03:12:39;101764.59;;;13.39;100.00
47260;BME280;32999;52.412;4.890;2022-10-13T03:17:43;101668.19;;;12.92;100.00
47260;BME280;32999;52.412;4.890;2022-10-13T03:22:45;101759.22;;;13.39;100.00
47260;BME280;32999;52.412;4.890;2022-10-13T03:27:46;101705.72;;;13.15;100.00
47260;BME280;32999;52.412;4.890;2022-10-13T03:32:50;101749.50;;;13.38;100.00
47260;BME280;32999;52.412;4.890;2022-10-13T03:37:52;101692.56;;;13.05;100.00
47260;BME280;32999;52.412;4.890;2022-10-13T03:42:54;101752.03;;;13.54;100.00
47260;BME280;32999;52.412;4.890;2022-10-13T03:47:57;101755.19;;;13.58;100.00
47260;BME280;32999;52.412;4.890;2022-10-13T03:52:59;101671.72;;;12.92;100.00
47260;BME280;32999;52.412;4.890;2022-10-13T03:58:02;101746.19;;;13.51;100.00
47260;BME280;32999;52.412;4.890;2022-10-13T04:03:05;101694.97;;;13.15;100.00
47260;BME280;32999;52.412;4.890;2022-10-13T04:08:08;101703.47;;;13.41;100.00
47260;BME280;32999;52.412;4.890;2022-10-13T04:13:10;101628.78;;;12.92;100.00
47260;BME280;32999;52.412;4.890;2022-10-13T04:18:14;101767.31;;;13.69;100.00
47260;BME280;32999;52.412;4.890;2022-10-13T04:23:15;101649.25;;;13.31;100.00
47260;BME280;32999;52.412;4.890;2022-10-13T04:28:24;101728.59;;;13.78;100.00
47260;BME280;32999;52.412;4.890;2022-10-13T04:33:28;101705.25;;;13.78;100.00
47260;BME280;32999;52.412;4.890;2022-10-13T04:38:33;101708.88;;;13.71;100.00
47260;BME280;32999;52.412;4.890;2022-10-13T04:43:34;101699.22;;;13.47;100.00
47260;BME280;32999;52.412;4.890;2022-10-13T04:48:38;101733.69;;;13.73;100.00
47260;BME280;32999;52.412;4.890;2022-10-13T04:53:44;101726.00;;;13.70;100.00
47260;BME280;32999;52.412;4.890;2022-10-13T04:58:46;101716.00;;;13.49;100.00
47260;BME280;32999;52.412;4.890;2022-10-13T05:03:51;101588.88;;;12.75;100.00
47260;BME280;32999;52.412;4.890;2022-10-13T05:08:53;101725.44;;;13.74;100.00
47260;BME280;32999;52.412;4.890;2022-10-13T05:13:55;101625.00;;;13.02;100.00
47260;BME280;32999;52.412;4.890;2022-10-13T05:18:58;101670.16;;;13.13;100.00
47260;BME280;32999;52.412;4.890;2022-10-13T05:24:00;101700.06;;;13.47;100.00
47260;BME280;32999;52.412;4.890;2022-10-13T05:29:02;101730.09;;;13.80;100.00
47260;BME280;32999;52.412;4.890;2022-10-13T05:34:05;101728.88;;;13.83;100.00
47260;BME280;32999;52.412;4.890;2022-10-13T05:39:08;101664.78;;;13.50;100.00
47260;BME280;32999;52.412;4.890;2022-10-13T05:44:10;101656.09;;;13.48;100.00
47260;BME280;32999;52.412;4.890;2022-10-13T05:49:13;101728.50;;;13.86;100.00
47260;BME280;32999;52.412;4.890;2022-10-13T05:54:18;101646.28;;;13.55;100.00
47260;BME280;32999;52.412;4.890;2022-10-13T05:59:23;101728.88;;;13.83;100.00
47260;BME280;32999;52.412;4.890;2022-10-13T06:04:30;101713.94;;;13.95;100.00
47260;BME280;32999;52.412;4.890;2022-10-13T06:09:36;101709.59;;;13.94;100.00
47260;BME280;32999;52.412;4.890;2022-10-13T06:14:40;101729.97;;;14.03;100.00
47260;BME280;32999;52.412;4.890;2022-10-13T06:19:43;101665.97;;;13.62;100.00
47260;BME280;32999;52.412;4.890;2022-10-13T06:24:52;101674.75;;;13.86;100.00
47260;BME280;32999;52.412;4.890;2022-10-13T06:29:54;101658.44;;;13.87;100.00
47260;BME280;32999;52.412;4.890;2022-10-13T06:34:59;101682.19;;;14.20;100.00
47260;BME280;32999;52.412;4.890;2022-10-13T06:40:00;101703.59;;;14.43;100.00
47260;BME280;32999;52.412;4.890;2022-10-13T06:45:03;101713.97;;;14.46;100.00
47260;BME280;32999;52.412;4.890;2022-10-13T06:50:08;101725.38;;;14.48;100.00
47260;BME280;32999;52.412;4.890;2022-10-13T06:55:10;101562.31;;;13.68;100.00
47260;BME280;32999;52.412;4.890;2022-10-13T07:00:12;101703.75;;;14.56;100.00
47260;BME280;32999;52.412;4.890;2022-10-13T07:05:15;101678.72;;;14.41;100.00
47260;BME280;32999;52.412;4.890;2022-10-13T07:10:17;101715.75;;;14.60;100.00
47260;BME280;32999;52.412;4.890;2022-10-13T07:15:20;101697.72;;;14.54;100.00
47260;BME280;32999;52.412;4.890;2022-10-13T07:20:27;101664.75;;;14.30;100.00
47260;BME280;32999;52.412;4.890;2022-10-13T07:25:28;101701.28;;;14.61;100.00
47260;BME280;32999;52.412;4.890;2022-10-13T07:30:30;101708.09;;;14.78;100.00
47260;BME280;32999;52.412;4.890;2022-10-13T07:35:36;101660.50;;;14.57;100.00
47260;BME280;32999;52.412;4.890;2022-10-13T07:40:41;101716.44;;;14.83;100.00
47260;BME280;32999;52.412;4.890;2022-10-13T07:45:43;101629.00;;;14.37;100.00
47260;BME280;32999;52.412;4.890;2022-10-13T07:50:47;101610.25;;;14.22;100.00
47260;BME280;32999;52.412;4.890;2022-10-13T07:55:49;101576.31;;;14.00;100.00
47260;BME280;32999;52.412;4.890;2022-10-13T08:00:55;101697.16;;;14.58;100.00
47260;BME280;32999;52.412;4.890;2022-10-13T08:06:01;101703.97;;;14.61;100.00
47260;BME280;32999;52.412;4.890;2022-10-13T08:11:06;101700.41;;;14.75;100.00
47260;BME280;32999;52.412;4.890;2022-10-13T08:16:09;101691.41;;;14.68;100.00
47260;BME280;32999;52.412;4.890;2022-10-13T08:21:13;101668.63;;;14.64;100.00
47260;BME280;32999;52.412;4.890;2022-10-13T08:26:26;101691.03;;;14.92;100.00
47260;BME280;32999;52.412;4.890;2022-10-13T08:31:29;101595.44;;;14.47;100.00
47260;BME280;32999;52.412;4.890;2022-10-13T08:36:32;101620.53;;;14.54;100.00
47260;BME280;32999;52.412;4.890;2022-10-13T08:41:37;101710.97;;;15.26;100.00
47260;BME280;32999;52.412;4.890;2022-10-13T08:46:46;101632.19;;;14.89;100.00
47260;BME280;32999;52.412;4.890;2022-10-13T08:51:53;101710.78;;;15.55;100.00
47260;BME280;32999;52.412;4.890;2022-10-13T08:56:56;101712.53;;;15.70;100.00
47260;BME280;32999;52.412;4.890;2022-10-13T09:02:01;101698.72;;;15.86;100.00
47260;BME280;32999;52.412;4.890;2022-10-13T09:07:12;101681.41;;;15.67;100.00
47260;BME280;32999;52.412;4.890;2022-10-13T09:12:14;101692.09;;;15.88;100.00
47260;BME280;32999;52.412;4.890;2022-10-13T09:17:25;101702.31;;;15.99;100.00
47260;BME280;32999;52.412;4.890;2022-10-13T09:22:31;101704.19;;;15.99;100.00
47260;BME280;32999;52.412;4.890;2022-10-13T09:27:41;101695.50;;;16.10;100.00
47260;BME280;32999;52.412;4.890;2022-10-13T09:32:43;101699.69;;;16.19;100.00
47260;BME280;32999;52.412;4.890;2022-10-13T09:38:09;101692.81;;;16.10;100.00
47260;BME280;32999;52.412;4.890;2022-10-13T09:43:28;101686.19;;;16.06;100.00
47260;BME280;32999;52.412;4.890;2022-10-13T09:48:34;101711.47;;;16.05;100.00
47260;BME280;32999;52.412;4.890;2022-10-13T09:53:45;101711.44;;;15.98;100.00
47260;BME280;32999;52.412;4.890;2022-10-13T09:58:54;101725.34;;;16.02;100.00
47260;BME280;32999;52.412;4.890;2022-10-13T10:04:03;101713.06;;;15.93;100.00
47260;BME280;32999;52.412;4.890;2022-10-13T10:09:21;101726.16;;;15.96;100.00
47260;BME280;32999;52.412;4.890;2022-10-13T10:14:29;101706.00;;;15.92;100.00
47260;BME280;32999;52.412;4.890;2022-10-13T10:19:52;101691.47;;;15.86;100.00
47260;BME280;32999;52.412;4.890;2022-10-13T10:25:10;101633.66;;;15.54;100.00
47260;BME280;32999;52.412;4.890;2022-10-13T10:30:19;101715.00;;;16.12;100.00
47260;BME280;32999;52.412;4.890;2022-10-13T10:35:34;101694.69;;;16.16;100.00
47260;BME280;32999;52.412;4.890;2022-10-13T10:40:50;101700.72;;;16.18;100.00
47260;BME280;32999;52.412;4.890;2022-10-13T10:45:56;101705.09;;;16.19;100.00
47260;BME280;32999;52.412;4.890;2022-10-13T10:51:01;101697.00;;;16.19;100.00
47260;BME280;32999;52.412;4.890;2022-10-13T10:56:13;101669.38;;;16.04;100.00
47260;BME280;32999;52.412;4.890;2022-10-13T11:01:29;101676.03;;;16.08;100.00
47260;BME280;32999;52.412;4.890;2022-10-13T11:06:38;101694.28;;;16.19;100.00
47260;BME280;32999;52.412;4.890;2022-10-13T11:11:41;101682.31;;;16.28;100.00
47260;BME280;32999;52.412;4.890;2022-10-13T11:17:01;101674.66;;;16.45;100.00
47260;BME280;32999;52.412;4.890;2022-10-13T11:22:22;101672.38;;;16.62;100.00
47260;BME280;32999;52.412;4.890;2022-10-13T11:27:36;101641.31;;;15.92;100.00
47260;BME280;32999;52.412;4.890;2022-10-13T11:32:44;101674.22;;;16.42;100.00
47260;BME280;32999;52.412;4.890;2022-10-13T11:38:21;101659.09;;;16.47;100.00
47260;BME280;32999;52.412;4.890;2022-10-13T11:43:44;101648.31;;;16.47;100.00
47260;BME280;32999;52.412;4.890;2022-10-13T11:54:39;101607.38;;;16.17;100.00
47260;BME280;32999;52.412;4.890;2022-10-13T11:59:47;101493.09;;;15.44;100.00
47260;BME280;32999;52.412;4.890;2022-10-13T12:05:06;101613.19;;;16.21;100.00
47260;BME280;32999;52.412;4.890;2022-10-13T12:10:17;101628.50;;;16.07;100.00
47260;BME280;32999;52.412;4.890;2022-10-13T12:15:31;101613.56;;;16.11;100.00
47260;BME280;32999;52.412;4.890;2022-10-13T12:20:33;101605.22;;;15.93;100.00
47260;BME280;32999;52.412;4.890;2022-10-13T12:25:34;101605.25;;;15.99;100.00
47260;BME280;32999;52.412;4.890;2022-10-13T12:30:37;101550.13;;;15.54;100.00
47260;BME280;32999;52.412;4.890;2022-10-13T12:35:39;101535.63;;;15.55;100.00
47260;BME280;32999;52.412;4.890;2022-10-13T12:40:42;101618.16;;;16.17;100.00
47260;BME280;32999;52.412;4.890;2022-10-13T12:45:45;101641.00;;;16.34;100.00
47260;BME280;32999;52.412;4.890;2022-10-13T12:50:47;101637.00;;;16.11;100.00
47260;BME280;32999;52.412;4.890;2022-10-13T12:55:53;101539.31;;;15.48;100.00
47260;BME280;32999;52.412;4.890;2022-10-13T13:01:29;101555.03;;;15.79;100.00
47260;BME280;32999;52.412;4.890;2022-10-13T13:06:35;101610.66;;;16.13;100.00
47260;BME280;32999;52.412;4.890;2022-10-13T13:11:39;101616.94;;;16.26;100.00
47260;BME280;32999;52.412;4.890;2022-10-13T13:17:00;101571.66;;;16.02;100.00
47260;BME280;32999;52.412;4.890;2022-10-13T13:22:03;101612.75;;;16.17;100.00
47260;BME280;32999;52.412;4.890;2022-10-13T13:27:21;101567.22;;;15.75;100.00
47260;BME280;32999;52.412;4.890;2022-10-13T13:32:27;101555.59;;;15.68;100.00
47260;BME280;32999;52.412;4.890;2022-10-13T13:37:33;101608.56;;;15.95;100.00
47260;BME280;32999;52.412;4.890;2022-10-13T13:42:35;101601.91;;;15.91;100.00
47260;BME280;32999;52.412;4.890;2022-10-13T13:47:38;101608.56;;;15.95;100.00
47260;BME280;32999;52.412;4.890;2022-10-13T13:52:40;101572.00;;;15.73;100.00
47260;BME280;32999;52.412;4.890;2022-10-13T13:57:42;101610.81;;;15.91;100.00
47260;BME280;32999;52.412;4.890;2022-10-13T14:02:45;101537.34;;;15.22;100.00
47260;BME280;32999;52.412;4.890;2022-10-13T14:07:47;101621.38;;;15.80;100.00
47260;BME280;32999;52.412;4.890;2022-10-13T14:12:50;101610.75;;;15.72;100.00
47260;BME280;32999;52.412;4.890;2022-10-13T14:17:53;101453.38;;;14.64;100.00
47260;BME280;32999;52.412;4.890;2022-10-13T14:22:55;101597.97;;;15.46;100.00
47260;BME280;32999;52.412;4.890;2022-10-13T14:27:56;101582.59;;;15.33;100.00
47260;BME280;32999;52.412;4.890;2022-10-13T14:32:59;101613.28;;;15.45;100.00
47260;BME280;32999;52.412;4.890;2022-10-13T14:38:04;101568.34;;;15.11;100.00
47260;BME280;32999;52.412;4.890;2022-10-13T14:43:05;101599.88;;;15.52;100.00
47260;BME280;32999;52.412;4.890;2022-10-13T14:48:09;101600.06;;;15.50;100.00
47260;BME280;32999;52.412;4.890;2022-10-13T14:53:11;101602.88;;;15.36;100.00
47260;BME280;32999;52.412;4.890;2022-10-13T14:58:14;101575.38;;;15.06;100.00
47260;BME280;32999;52.412;4.890;2022-10-13T15:03:18;101594.53;;;15.24;100.00
47260;BME280;32999;52.412;4.890;2022-10-13T15:08:19;101552.44;;;14.54;100.00
47260;BME280;32999;52.412;4.890;2022-10-13T15:13:40;101506.75;;;14.33;100.00
47260;BME280;32999;52.412;4.890;2022-10-13T15:18:44;101590.22;;;14.67;100.00
47260;BME280;32999;52.412;4.890;2022-10-13T15:23:46;101588.78;;;14.71;100.00
47260;BME280;32999;52.412;4.890;2022-10-13T15:28:50;101582.25;;;14.80;100.00
47260;BME280;32999;52.412;4.890;2022-10-13T15:33:53;101567.31;;;14.78;100.00
47260;BME280;32999;52.412;4.890;2022-10-13T15:38:55;101576.44;;;14.77;100.00
47260;BME280;32999;52.412;4.890;2022-10-13T15:44:00;101575.09;;;14.66;100.00
47260;BME280;32999;52.412;4.890;2022-10-13T15:49:11;101575.16;;;14.73;100.00
47260;BME280;32999;52.412;4.890;2022-10-13T15:54:12;101469.06;;;14.05;100.00
47260;BME280;32999;52.412;4.890;2022-10-13T15:59:14;101504.38;;;14.23;100.00
47260;BME280;32999;52.412;4.890;2022-10-13T16:04:19;101535.16;;;14.42;100.00
47260;BME280;32999;52.412;4.890;2022-10-13T16:09:23;101430.97;;;13.52;100.00
47260;BME280;32999;52.412;4.890;2022-10-13T16:14:25;101425.66;;;13.58;100.00
47260;BME280;32999;52.412;4.890;2022-10-13T16:19:28;101559.63;;;14.47;100.00
47260;BME280;32999;52.412;4.890;2022-10-13T16:24:30;101482.72;;;14.03;100.00
47260;BME280;32999;52.412;4.890;2022-10-13T16:29:33;101559.34;;;14.63;100.00
47260;BME280;32999;52.412;4.890;2022-10-13T16:34:37;101563.56;;;14.72;100.00
47260;BME280;32999;52.412;4.890;2022-10-13T16:39:45;101573.69;;;14.70;100.00
47260;BME280;32999;52.412;4.890;2022-10-13T16:44:47;101575.34;;;14.71;100.00
47260;BME280;32999;52.412;4.890;2022-10-13T16:49:51;101582.53;;;14.64;100.00
47260;BME280;32999;52.412;4.890;2022-10-13T16:54:52;101513.22;;;13.95;100.00
47260;BME280;32999;52.412;4.890;2022-10-13T16:59:55;101595.34;;;14.41;100.00
47260;BME280;32999;52.412;4.890;2022-10-13T17:04:58;101614.41;;;14.24;100.00
47260;BME280;32999;52.412;4.890;2022-10-13T17:10:00;101603.22;;;14.21;100.00
47260;BME280;32999;52.412;4.890;2022-10-13T17:15:08;101584.94;;;13.95;100.00
47260;BME280;32999;52.412;4.890;2022-10-13T17:20:11;101613.31;;;13.98;100.00
47260;BME280;32999;52.412;4.890;2022-10-13T17:25:13;101594.34;;;13.84;100.00
47260;BME280;32999;52.412;4.890;2022-10-13T17:30:15;101628.03;;;14.02;100.00
47260;BME280;32999;52.412;4.890;2022-10-13T17:35:24;101623.13;;;14.05;100.00
47260;BME280;32999;52.412;4.890;2022-10-13T17:40:26;101636.09;;;14.02;100.00
47260;BME280;32999;52.412;4.890;2022-10-13T17:45:28;101629.25;;;13.99;100.00
47260;BME280;32999;52.412;4.890;2022-10-13T17:50:33;101631.00;;;13.92;100.00
47260;BME280;32999;52.412;4.890;2022-10-13T17:55:42;101564.13;;;13.46;100.00
47260;BME280;32999;52.412;4.890;2022-10-13T18:00:43;101622.44;;;13.82;100.00
47260;BME280;32999;52.412;4.890;2022-10-13T18:05:47;101584.03;;;13.37;100.00
47260;BME280;32999;52.412;4.890;2022-10-13T18:10:48;101627.34;;;13.63;100.00
47260;BME280;32999;52.412;4.890;2022-10-13T18:15:50;101548.03;;;13.02;100.00
47260;BME280;32999;52.412;4.890;2022-10-13T18:20:53;101521.72;;;12.68;100.00
47260;BME280;32999;52.412;4.890;2022-10-13T18:25:58;101641.00;;;13.33;100.00
47260;BME280;32999;52.412;4.890;2022-10-13T18:31:02;101642.56;;;13.27;100.00
47260;BME280;32999;52.412;4.890;2022-10-13T18:36:13;101602.97;;;12.91;100.00
47260;BME280;32999;52.412;4.890;2022-10-13T18:41:16;101645.75;;;13.08;100.00
47260;BME280;32999;52.412;4.890;2022-10-13T18:46:19;101654.91;;;12.99;100.00
47260;BME280;32999;52.412;4.890;2022-10-13T18:51:22;101642.56;;;12.89;100.00
47260;BME280;32999;52.412;4.890;2022-10-13T18:56:28;101642.66;;;12.81;100.00
47260;BME280;32999;52.412;4.890;2022-10-13T19:01:31;101618.53;;;12.58;100.00
47260;BME280;32999;52.412;4.890;2022-10-13T19:06:36;101645.75;;;12.70;100.00
47260;BME280;32999;52.412;4.890;2022-10-13T19:11:38;101643.06;;;12.70;100.00
47260;BME280;32999;52.412;4.890;2022-10-13T19:16:44;101640.75;;;12.67;100.00
47260;BME280;32999;52.412;4.890;2022-10-13T19:21:47;101639.44;;;12.63;100.00
47260;BME280;32999;52.412;4.890;2022-10-13T19:26:49;101647.31;;;12.65;100.00
47260;BME280;32999;52.412;4.890;2022-10-13T19:31:50;101645.19;;;12.60;100.00
47260;BME280;32999;52.412;4.890;2022-10-13T19:36:56;101649.91;;;12.58;100.00
47260;BME280;32999;52.412;4.890;2022-10-13T19:41:58;101649.94;;;12.50;100.00
47260;BME280;32999;52.412;4.890;2022-10-13T19:47:01;101644.81;;;12.40;100.00
47260;BME280;32999;52.412;4.890;2022-10-13T19:52:08;101651.31;;;12.46;100.00
47260;BME280;32999;52.412;4.890;2022-10-13T19:57:11;101679.47;;;12.42;100.00
47260;BME280;32999;52.412;4.890;2022-10-13T20:02:13;101654.69;;;12.40;100.00
47260;BME280;32999;52.412;4.890;2022-10-13T20:07:21;101663.13;;;12.37;100.00
47260;BME280;32999;52.412;4.890;2022-10-13T20:12:24;101669.50;;;12.36;100.00
47260;BME280;32999;52.412;4.890;2022-10-13T20:17:26;101667.66;;;12.36;100.00
47260;BME280;32999;52.412;4.890;2022-10-13T20:22:29;101629.81;;;12.08;100.00
47260;BME280;32999;52.412;4.890;2022-10-13T20:27:30;101535.19;;;11.46;100.00
47260;BME280;32999;52.412;4.890;2022-10-13T20:32:32;101607.22;;;12.03;100.00
47260;BME280;32999;52.412;4.890;2022-10-13T20:37:35;101571.53;;;11.79;100.00
47260;BME280;32999;52.412;4.890;2022-10-13T20:42:38;101664.84;;;12.30;100.00
47260;BME280;32999;52.412;4.890;2022-10-13T20:47:40;101617.63;;;11.98;100.00
47260;BME280;32999;52.412;4.890;2022-10-13T20:52:43;101649.31;;;12.17;100.00
47260;BME280;32999;52.412;4.890;2022-10-13T20:57:49;101664.22;;;12.19;100.00
47260;BME280;32999;52.412;4.890;2022-10-13T21:02:51;101663.38;;;12.19;100.00
47260;BME280;32999;52.412;4.890;2022-10-13T21:07:55;101629.28;;;11.82;100.00
47260;BME280;32999;52.412;4.890;2022-10-13T21:12:57;101662.97;;;12.07;100.00
47260;BME280;32999;52.412;4.890;2022-10-13T21:17:59;101566.47;;;11.45;100.00
47260;BME280;32999;52.412;4.890;2022-10-13T21:23:03;101572.16;;;11.50;100.00
47260;BME280;32999;52.412;4.890;2022-10-13T21:28:05;101662.31;;;12.05;100.00
47260;BME280;32999;52.412;4.890;2022-10-13T21:33:07;101660.03;;;12.17;100.00
47260;BME280;32999;52.412;4.890;2022-10-13T21:38:11;101654.03;;;12.15;100.00
47260;BME280;32999;52.412;4.890;2022-10-13T21:43:17;101647.06;;;12.06;100.00
47260;BME280;32999;52.412;4.890;2022-10-13T21:48:19;101651.06;;;12.10;100.00
47260;BME280;32999;52.412;4.890;2022-10-13T21:53:23;101596.81;;;11.69;100.00
47260;BME280;32999;52.412;4.890;2022-10-13T21:58:24;101639.56;;;12.01;100.00
47260;BME280;32999;52.412;4.890;2022-10-13T22:03:27;101631.84;;;11.98;100.00
47260;BME280;32999;52.412;4.890;2022-10-13T22:08:30;101628.97;;;11.77;100.00
47260;BME280;32999;52.412;4.890;2022-10-13T22:13:32;101642.31;;;11.85;100.00
47260;BME280;32999;52.412;4.890;2022-10-13T22:18:34;101640.50;;;11.77;100.00
47260;BME280;32999;52.412;4.890;2022-10-13T22:23:37;101606.28;;;11.48;100.00
47260;BME280;32999;52.412;4.890;2022-10-13T22:28:39;101637.88;;;11.61;100.00
47260;BME280;32999;52.412;4.890;2022-10-13T22:33:42;101627.84;;;11.55;100.00
47260;BME280;32999;52.412;4.890;2022-10-13T22:38:46;101649.44;;;11.53;100.00
47260;BME280;32999;52.412;4.890;2022-10-13T22:43:49;101622.53;;;11.47;100.00
47260;BME280;32999;52.412;4.890;2022-10-13T22:48:51;101633.06;;;11.40;100.00
47260;BME280;32999;52.412;4.890;2022-10-13T22:53:55;101627.44;;;11.35;100.00
47260;BME280;32999;52.412;4.890;2022-10-13T22:58:58;101624.59;;;11.37;100.00
47260;BME280;32999;52.412;4.890;2022-10-13T23:04:03;101610.66;;;11.41;100.00
47260;BME280;32999;52.412;4.890;2022-10-13T23:09:09;101614.84;;;11.44;100.00
47260;BME280;32999;52.412;4.890;2022-10-13T23:14:12;101615.34;;;11.47;100.00
47260;BME280;32999;52.412;4.890;2022-10-13T23:19:13;101606.28;;;11.48;100.00
47260;BME280;32999;52.412;4.890;2022-10-13T23:24:17;101603.09;;;11.53;100.00
47260;BME280;32999;52.412;4.890;2022-10-13T23:29:19;101563.72;;;11.31;100.00
47260;BME280;32999;52.412;4.890;2022-10-13T23:34:20;101590.56;;;11.53;100.00
47260;BME280;32999;52.412;4.890;2022-10-13T23:39:24;101515.13;;;11.11;100.00
47260;BME280;32999;52.412;4.890;2022-10-13T23:44:26;101583.91;;;11.41;100.00
47260;BME280;32999;52.412;4.890;2022-10-13T23:49:29;101592.72;;;11.58;100.00
47260;BME280;32999;52.412;4.890;2022-10-13T23:54:32;101478.78;;;10.85;100.00
47260;BME280;32999;52.412;4.890;2022-10-13T23:59:39;101578.84;;;11.54;100.00
